Time;durP1;ratioP1;P1;durP2;ratioP2;P2;SDS_P1;SDS_P2;PMS_P1;PMS_P2;Temp;Humidity;BMP_temperature;BMP_pressure;BME280_temperature;BME280_humidity;BME280_pressure;Samples;Min_cycle;Max_cycle;Signal;HPM_P1;HPM_P2
2022/05/29 00:00:10;;;;;;;3.50;1.80;;;19.90;49.50;;;;;;5058492;28;20036;-89
2022/05/29 00:02:36;;;;;;;2.70;1.60;;;20.00;49.60;;;;;;5057005;28;20542;-89
2022/05/29 00:05:02;;;;;;;3.72;1.50;;;20.10;49.40;;;;;;5074541;28;20099;-89
2022/05/29 00:07:28;;;;;;;5.30;1.90;;;20.30;49.00;;;;;;5057204;28;20612;-90
2022/05/29 00:09:54;;;;;;;5.40;1.80;;;20.40;48.60;;;;;;5057927;28;20033;-83
2022/05/29 00:12:21;;;;;;;5.75;2.00;;;20.40;48.90;;;;;;5057066;28;20028;-95
2022/05/29 00:14:48;;;;;;;3.28;1.60;;;20.30;49.10;;;;;;5075671;28;20016;-88
2022/05/29 00:17:16;;;;;;;3.30;1.67;;;20.20;49.50;;;;;;5056875;28;20047;-89
2022/05/29 00:19:41;;;;;;;6.10;1.88;;;20.10;49.40;;;;;;5056092;28;20067;-89
2022/05/29 00:22:16;;;;;;;4.57;1.75;;;20.20;49.20;;;;;;5075645;28;20048;-92
2022/05/29 00:24:54;;;;;;;4.50;1.83;;;20.20;49.40;;;;;;5056804;28;20203;-94
2022/05/29 00:27:20;;;;;;;3.88;1.73;;;20.20;49.50;;;;;;5075735;28;20037;-89
2022/05/29 00:29:46;;;;;;;4.85;2.20;;;20.10;49.40;;;;;;5075769;28;20031;-88
2022/05/29 00:32:33;;;;;;;3.30;1.73;;;20.20;49.40;;;;;;5056450;28;20051;-81
2022/05/29 00:34:59;;;;;;;3.30;1.60;;;20.20;49.40;;;;;;5056005;28;20032;-94
2022/05/29 00:37:27;;;;;;;4.20;1.60;;;20.00;49.60;;;;;;5075752;28;20074;-90
2022/05/29 00:39:54;;;;;;;4.63;1.80;;;20.20;50.10;;;;;;5057390;28;20352;-90
2022/05/29 00:42:23;;;;;;;3.20;1.83;;;20.20;49.70;;;;;;5074711;28;20064;-83
2022/05/29 00:44:50;;;;;;;3.22;1.77;;;20.10;49.70;;;;;;5073643;28;20063;-84
2022/05/29 00:47:19;;;;;;;3.10;1.70;;;20.00;49.90;;;;;;5057925;28;20123;-93
2022/05/29 00:49:47;;;;;;;3.60;1.90;;;20.10;50.10;;;;;;5057126;28;20020;-86
2022/05/29 00:52:17;;;;;;;3.33;1.90;;;20.00;50.30;;;;;;5058795;28;20025;-90
2022/05/29 00:54:53;;;;;;;4.05;2.00;;;20.00;50.30;;;;;;5056634;28;20021;-92
2022/05/29 00:57:28;;;;;;;3.97;1.70;;;20.10;50.30;;;;;;5057700;28;20036;-91
2022/05/29 01:00:01;;;;;;;5.13;1.90;;;20.10;50.30;;;;;;5056425;28;20030;-80
2022/05/29 01:02:27;;;;;;;5.88;1.77;;;20.10;50.60;;;;;;5056518;28;20119;-88
2022/05/29 01:04:52;;;;;;;4.20;1.90;;;20.00;50.80;;;;;;5074708;28;20024;-85
2022/05/29 01:07:22;;;;;;;3.72;1.80;;;19.90;51.00;;;;;;5055770;28;20060;-81
2022/05/29 01:09:49;;;;;;;4.65;1.77;;;19.90;51.30;;;;;;5073580;28;20486;-92
2022/05/29 01:12:17;;;;;;;3.92;1.60;;;19.90;51.00;;;;;;5073879;28;20033;-91
2022/05/29 01:15:22;;;;;;;3.67;1.70;;;19.80;50.60;;;;;;5074344;28;20024;-92
2022/05/29 01:18:10;;;;;;;4.22;1.80;;;19.90;50.40;;;;;;5057075;28;20021;-90
2022/05/29 01:20:51;;;;;;;5.43;1.70;;;19.90;50.30;;;;;;5074033;28;20438;-81
2022/05/29 01:23:36;;;;;;;4.45;1.80;;;19.80;50.20;;;;;;5055773;28;20060;-85
2022/05/29 01:26:20;;;;;;;4.82;1.80;;;19.50;50.50;;;;;;5073436;28;20036;-82
2022/05/29 01:29:07;;;;;;;3.45;1.70;;;19.40;50.80;;;;;;5073614;28;20055;-80
2022/05/29 01:31:42;;;;;;;3.67;1.90;;;19.40;50.40;;;;;;5075018;28;20028;-86
2022/05/29 01:34:44;;;;;;;3.47;1.80;;;19.40;50.50;;;;;;5056453;28;20467;-81
2022/05/29 01:37:13;;;;;;;3.83;2.13;;;19.40;50.20;;;;;;5056320;28;20471;-81
2022/05/29 01:40:17;;;;;;;2.92;1.55;;;19.20;50.50;;;;;;5055882;28;20021;-84
2022/05/29 01:42:55;;;;;;;3.92;1.70;;;19.40;50.40;;;;;;4957917;28;20031;-93
2022/05/29 01:46:01;;;;;;;3.08;1.80;;;19.30;50.50;;;;;;4973926;28;20039;-90
2022/05/29 01:48:53;;;;;;;3.47;1.77;;;19.50;50.50;;;;;;4974929;28;20038;-87
2022/05/29 01:51:22;;;;;;;4.75;1.63;;;19.50;50.40;;;;;;4977434;28;20262;-85
2022/05/29 01:53:51;;;;;;;3.17;1.67;;;19.40;50.50;;;;;;4960436;28;20042;-90
2022/05/29 01:56:24;;;;;;;4.20;1.48;;;19.60;50.90;;;;;;4960653;28;20027;-88
2022/05/29 01:59:02;;;;;;;3.53;1.60;;;19.80;50.10;;;;;;4976855;28;20027;-91
2022/05/29 02:01:34;;;;;;;4.63;1.90;;;19.70;50.10;;;;;;4961199;28;20074;-93
2022/05/29 02:04:05;;;;;;;4.25;1.63;;;19.70;50.40;;;;;;4977176;28;20027;-84
2022/05/29 02:09:38;;;;;;;3.80;1.58;;;19.70;50.30;;;;;;4977297;28;20034;-87
2022/05/29 02:12:07;;;;;;;3.85;1.73;;;19.60;50.50;;;;;;4962079;28;20027;-86
2022/05/29 02:14:36;;;;;;;4.30;1.70;;;19.70;50.40;;;;;;4976747;28;20030;-87
2022/05/29 02:17:09;;;;;;;3.42;1.60;;;19.80;50.30;;;;;;4976979;28;20513;-90
2022/05/29 02:19:41;;;;;;;3.20;1.50;;;19.80;50.60;;;;;;5030811;28;20032;-79
2022/05/29 02:22:12;;;;;;;3.35;1.67;;;19.80;50.80;;;;;;5058976;28;20111;-80
2022/05/29 02:24:49;;;;;;;3.20;1.90;;;19.70;50.80;;;;;;5076947;28;20021;-91
2022/05/29 02:27:34;;;;;;;3.85;1.60;;;19.60;50.90;;;;;;5061249;28;20508;-84
2022/05/29 02:30:05;;;;;;;4.30;1.73;;;19.50;51.00;;;;;;5060247;28;20116;-91
2022/05/29 02:32:52;;;;;;;4.20;1.70;;;19.60;51.00;;;;;;5059111;28;20170;-85
2022/05/29 02:35:27;;;;;;;3.13;1.80;;;19.60;51.10;;;;;;5076166;28;20044;-87
2022/05/29 02:38:16;;;;;;;4.53;1.80;;;19.70;51.00;;;;;;5058476;28;20021;-80
2022/05/29 02:40:52;;;;;;;4.75;1.80;;;19.80;50.70;;;;;;5042252;28;20068;-89
2022/05/29 02:43:46;;;;;;;5.70;1.75;;;19.70;50.30;;;;;;5060252;28;20082;-90
2022/05/29 02:46:34;;;;;;;4.00;1.70;;;19.80;50.20;;;;;;5058962;28;20462;-89
2022/05/29 02:49:11;;;;;;;2.92;1.60;;;19.80;50.00;;;;;;5053888;28;20029;-92
2022/05/29 02:51:50;;;;;;;3.53;1.55;;;20.00;49.70;;;;;;5076076;28;20024;-87
2022/05/29 02:54:25;;;;;;;3.88;1.80;;;20.10;49.40;;;;;;5076200;28;20020;-92
2022/05/29 02:56:52;;;;;;;3.10;1.70;;;20.20;49.00;;;;;;5058132;28;20032;-86
2022/05/29 02:59:19;;;;;;;3.28;1.65;;;20.30;48.90;;;;;;5076234;28;20089;-91
2022/05/29 03:01:57;;;;;;;3.45;1.60;;;20.20;49.40;;;;;;5058995;28;20540;-91
2022/05/29 03:04:31;;;;;;;3.95;1.77;;;20.10;50.00;;;;;;5078497;28;20027;-95
2022/05/29 03:07:27;;;;;;;4.78;2.13;;;20.00;50.00;;;;;;5061846;28;20055;-93
2022/05/29 03:10:20;;;;;;;4.95;1.80;;;19.90;50.00;;;;;;5076072;28;20021;-90
2022/05/29 03:13:04;;;;;;;4.85;1.80;;;19.90;50.00;;;;;;5075792;28;20025;-87
2022/05/29 03:15:43;;;;;;;6.45;2.28;;;19.90;50.00;;;;;;5076491;28;20095;-93
2022/05/29 03:18:18;;;;;;;4.60;1.90;;;19.90;50.20;;;;;;5057883;28;20040;-86
2022/05/29 03:20:58;;;;;;;4.68;1.90;;;20.00;50.00;;;;;;5059042;28;20021;-94
2022/05/29 03:23:36;;;;;;;5.00;1.73;;;20.00;50.10;;;;;;5059146;28;20039;-92
2022/05/29 03:26:06;;;;;;;4.15;1.83;;;19.80;50.80;;;;;;5076637;28;20154;-81
2022/05/29 03:28:47;;;;;;;4.95;1.70;;;19.70;50.70;;;;;;5058335;28;20039;-89
2022/05/29 03:31:18;;;;;;;5.57;1.88;;;19.80;50.40;;;;;;5076909;28;20043;-93
2022/05/29 03:33:46;;;;;;;3.38;1.83;;;19.70;50.10;;;;;;5075322;28;20024;-93
2022/05/29 03:36:15;;;;;;;3.20;1.88;;;19.80;50.40;;;;;;5076184;28;20402;-85
2022/05/29 03:38:41;;;;;;;4.82;1.80;;;19.70;50.70;;;;;;5058621;28;20053;-95
2022/05/29 03:41:25;;;;;;;3.40;1.70;;;19.70;50.80;;;;;;5058241;28;20499;-88
2022/05/29 03:43:51;;;;;;;3.38;1.90;;;19.60;50.80;;;;;;5075708;28;20032;-91
2022/05/29 03:46:16;;;;;;;3.53;1.83;;;19.60;51.20;;;;;;5058446;28;20032;-91
2022/05/29 03:48:42;;;;;;;4.47;1.70;;;19.70;51.00;;;;;;5057661;28;20028;-91
2022/05/29 03:51:08;;;;;;;3.95;1.77;;;19.70;51.00;;;;;;5058404;28;20056;-80
2022/05/29 03:53:34;;;;;;;3.33;1.60;;;19.80;50.80;;;;;;5075049;28;20460;-83
2022/05/29 03:56:00;;;;;;;3.08;1.75;;;20.00;50.60;;;;;;5058116;28;20115;-91
2022/05/29 03:58:26;;;;;;;5.68;1.70;;;20.10;50.30;;;;;;5075329;28;20099;-86
2022/05/29 04:00:52;;;;;;;3.90;1.83;;;20.10;50.40;;;;;;5057673;28;20494;-87
2022/05/29 04:03:19;;;;;;;4.28;2.15;;;20.00;50.90;;;;;;5056740;28;20074;-84
2022/05/29 04:05:45;;;;;;;4.80;1.90;;;19.90;51.20;;;;;;5056666;28;20090;-84
2022/05/29 04:13:41;;;;;;;4.63;1.80;;;19.80;52.00;;;;;;5074201;28;20055;-79
2022/05/29 04:16:07;;;;;;;3.53;1.75;;;19.80;52.20;;;;;;5073612;28;20107;-82
2022/05/29 04:18:33;;;;;;;3.42;1.70;;;19.80;52.40;;;;;;5076331;28;20025;-93
2022/05/29 04:20:59;;;;;;;6.57;2.00;;;19.90;52.10;;;;;;5057807;28;20033;-92
2022/05/29 04:23:25;;;;;;;6.03;1.85;;;19.90;52.00;;;;;;5074277;28;20025;-92
2022/05/29 04:25:50;;;;;;;5.43;2.00;;;20.00;52.30;;;;;;5056535;28;20036;-76
2022/05/29 04:28:16;;;;;;;6.25;2.08;;;20.20;52.30;;;;;;5074508;28;20020;-86
2022/05/29 04:30:42;;;;;;;4.32;1.90;;;20.40;52.00;;;;;;5056802;28;20450;-82
2022/05/29 04:33:08;;;;;;;4.15;1.90;;;20.40;51.70;;;;;;5056485;28;20530;-92
2022/05/29 04:35:37;;;;;;;3.70;1.80;;;20.50;52.00;;;;;;5056333;28;20034;-76
2022/05/29 04:38:03;;;;;;;5.13;2.00;;;20.50;51.70;;;;;;5073694;28;20017;-86
2022/05/29 04:40:32;;;;;;;5.10;1.70;;;20.50;51.90;;;;;;5056625;28;20024;-84
2022/05/29 04:42:58;;;;;;;4.25;2.00;;;20.50;51.60;;;;;;5056351;28;20021;-85
2022/05/29 04:45:26;;;;;;;4.70;1.80;;;20.60;51.70;;;;;;5072299;28;20024;-82
2022/05/29 04:47:52;;;;;;;4.28;1.63;;;20.80;51.40;;;;;;5056464;28;20036;-84
2022/05/29 04:50:18;;;;;;;3.63;1.70;;;20.70;50.10;;;;;;5074365;28;20047;-83
2022/05/29 04:52:44;;;;;;;3.88;1.77;;;20.70;50.00;;;;;;5056275;28;20037;-83
2022/05/29 04:55:10;;;;;;;4.22;1.60;;;20.80;49.80;;;;;;5055497;28;20077;-89
2022/05/29 04:57:36;;;;;;;3.10;1.90;;;21.00;50.00;;;;;;5056051;28;20028;-94
2022/05/29 05:00:05;;;;;;;5.00;1.80;;;21.20;49.90;;;;;;5057952;28;20471;-91
2022/05/29 05:02:30;;;;;;;4.30;1.88;;;21.50;50.90;;;;;;5054093;28;20490;-76
2022/05/29 05:04:56;;;;;;;3.85;1.65;;;20.30;52.10;;;;;;5072154;28;20032;-81
2022/05/29 05:07:22;;;;;;;9.30;1.50;;;18.80;54.00;;;;;;5072414;28;20048;-78
2022/05/29 05:09:48;;;;;;;3.03;1.70;;;18.90;53.30;;;;;;5072839;28;20025;-82
2022/05/29 05:12:14;;;;;;;3.30;1.70;;;19.60;52.60;;;;;;5054005;28;20044;-76
2022/05/29 05:14:40;;;;;;;3.22;1.52;;;19.70;51.60;;;;;;5054101;28;20021;-76
2022/05/29 05:17:06;;;;;;;6.57;1.98;;;19.10;53.00;;;;;;5054775;28;20025;-77
2022/05/29 05:21:05;;;;;;;4.47;1.60;;;18.60;53.70;;;;;;5078099;27;1567929;-78
2022/05/29 05:23:31;;;;;;;3.43;1.60;;;18.70;54.00;;;;;;5100652;28;20055;-78
2022/05/29 05:25:57;;;;;;;5.05;1.45;;;19.40;53.80;;;;;;5090308;28;20024;-82
2022/05/29 05:28:23;;;;;;;7.05;1.80;;;18.90;53.20;;;;;;5092983;28;20042;-82
2022/05/29 05:30:48;;;;;;;5.78;1.70;;;18.60;53.90;;;;;;5111361;28;20032;-80
2022/05/29 05:33:15;;;;;;;3.55;1.90;;;18.40;55.10;;;;;;5081976;28;20016;-76
2022/05/29 05:35:41;;;;;;;3.25;1.75;;;19.10;54.00;;;;;;5077084;28;20055;-84
2022/05/29 05:38:07;;;;;;;3.15;1.80;;;20.00;52.50;;;;;;5092884;28;20070;-84
2022/05/29 05:40:33;;;;;;;3.22;1.60;;;20.80;51.50;;;;;;5093351;28;20057;-83
2022/05/29 05:42:59;;;;;;;3.08;1.67;;;21.40;49.70;;;;;;5111016;28;20020;-85
2022/05/29 05:45:24;;;;;;;4.57;1.58;;;21.80;48.80;;;;;;5092075;28;20045;-85
2022/05/29 05:47:50;;;;;;;3.08;1.50;;;21.90;46.60;;;;;;5086970;28;20028;-81
2022/05/29 05:50:16;;;;;;;4.28;1.60;;;22.30;46.80;;;;;;5081183;28;20031;-81
2022/05/29 05:52:42;;;;;;;4.13;1.50;;;22.60;45.70;;;;;;5088472;28;20020;-82
2022/05/29 05:55:11;;;;;;;5.75;2.08;;;22.60;46.90;;;;;;5101539;28;20070;-85
2022/05/29 05:57:38;;;;;;;4.10;1.60;;;22.70;47.00;;;;;;5076014;28;20047;-87
2022/05/29 06:00:06;;;;;;;5.82;1.50;;;22.70;46.90;;;;;;5084166;28;20032;-81
2022/05/29 06:02:32;;;;;;;5.80;1.70;;;22.80;47.30;;;;;;5095564;28;20074;-82
2022/05/29 06:04:58;;;;;;;4.85;1.55;;;22.90;45.80;;;;;;5090369;28;20024;-86
2022/05/29 06:07:23;;;;;;;3.58;1.60;;;23.00;45.20;;;;;;5093191;28;20038;-87
2022/05/29 06:09:49;;;;;;;3.30;1.50;;;23.00;44.80;;;;;;5085076;28;20021;-85
2022/05/29 06:12:19;;;;;;;5.55;1.55;;;23.10;44.80;;;;;;5055150;28;20029;-81
2022/05/29 06:14:46;;;;;;;5.82;1.60;;;23.30;44.70;;;;;;4353575;28;10000703;-84
2022/05/29 06:17:11;;;;;;;5.07;1.67;;;23.20;44.70;;;;;;5056113;28;20032;-78
2022/05/29 06:19:37;;;;;;;3.40;1.50;;;23.10;45.50;;;;;;5055560;28;20083;-84
2022/05/29 06:22:03;;;;;;;4.63;1.95;;;23.10;44.90;;;;;;5061153;28;20024;-80
2022/05/29 06:24:31;;;;;;;3.78;1.45;;;23.50;45.00;;;;;;5054322;28;20086;-83
2022/05/29 06:26:58;;;;;;;4.18;1.63;;;23.70;43.60;;;;;;5046701;28;20081;-81
2022/05/29 06:29:24;;;;;;;3.47;1.50;;;23.90;44.10;;;;;;5059384;28;20021;-80
2022/05/29 06:32:08;;;;;;;4.07;1.58;;;24.10;42.60;;;;;;5040368;28;20048;-82
2022/05/29 06:34:35;;;;;;;5.18;1.83;;;24.10;42.80;;;;;;5036185;28;20029;-78
2022/05/29 06:37:06;;;;;;;4.07;1.50;;;24.20;42.60;;;;;;5040413;28;20033;-78
2022/05/29 06:39:33;;;;;;;4.55;1.50;;;24.40;42.60;;;;;;5040821;28;20033;-83
2022/05/29 06:41:59;;;;;;;4.15;1.65;;;24.20;43.20;;;;;;5061468;28;20100;-77
2022/05/29 06:44:25;;;;;;;3.20;1.50;;;24.30;42.80;;;;;;5038124;28;20444;-84
2022/05/29 06:46:50;;;;;;;3.63;1.70;;;24.50;42.80;;;;;;5056678;28;20036;-83
2022/05/29 06:49:17;;;;;;;3.88;1.55;;;24.50;43.20;;;;;;5043449;28;20040;-83
2022/05/29 06:51:43;;;;;;;5.05;1.58;;;24.60;42.40;;;;;;5063162;28;20033;-86
2022/05/29 06:54:08;;;;;;;5.22;1.75;;;24.60;42.60;;;;;;5036239;28;20582;-83
2022/05/29 06:56:34;;;;;;;5.03;1.60;;;24.40;42.70;;;;;;5062421;28;20017;-76
2022/05/29 06:59:01;;;;;;;3.88;1.50;;;24.40;42.10;;;;;;5069674;28;20036;-78
2022/05/29 07:07:10;;;;;;;5.70;1.80;;;23.90;43.80;;;;;;5073304;28;20082;-84
2022/05/29 07:09:39;;;;;;;3.40;1.50;;;24.00;44.00;;;;;;5063096;28;20021;-80
2022/05/29 07:12:13;;;;;;;3.15;1.40;;;24.10;43.70;;;;;;5065525;28;20059;-82
2022/05/29 07:14:42;;;;;;;3.38;1.42;;;23.40;42.60;;;;;;5040377;28;20025;-80
2022/05/29 07:17:08;;;;;;;2.73;1.30;;;21.60;44.30;;;;;;5048602;28;20029;-79
2022/05/29 07:19:35;;;;;;;3.50;1.40;;;20.90;47.60;;;;;;5044552;28;20075;-79
2022/05/29 07:22:01;;;;;;;3.25;1.40;;;21.20;45.50;;;;;;5068184;28;20024;-86
2022/05/29 07:24:29;;;;;;;4.15;1.40;;;21.40;46.60;;;;;;5076040;28;20467;-85
2022/05/29 07:26:55;;;;;;;9.73;1.90;;;22.00;45.50;;;;;;5074595;28;20111;-86
2022/05/29 07:29:22;;;;;;;3.88;1.50;;;21.80;45.90;;;;;;5066601;28;20036;-83
2022/05/29 07:31:49;;;;;;;6.05;1.90;;;22.10;46.30;;;;;;5037228;28;20032;-79
2022/05/29 07:34:15;;;;;;;4.38;1.58;;;22.20;46.40;;;;;;5053019;28;20028;-78
2022/05/29 07:36:41;;;;;;;6.38;1.77;;;21.50;46.20;;;;;;5047865;28;20071;-79
2022/05/29 07:39:08;;;;;;;3.75;1.48;;;21.90;45.40;;;;;;5049959;28;20033;-85
2022/05/29 07:44:17;;;;;;;6.93;1.80;;;21.40;45.70;;;;;;5067622;28;20036;-79
2022/05/29 07:46:43;;;;;;;4.35;1.80;;;20.70;46.20;;;;;;5055286;28;20399;-77
2022/05/29 07:49:09;;;;;;;6.90;3.17;;;20.90;46.60;;;;;;5062958;28;20072;-89
2022/05/29 07:51:35;;;;;;;5.85;1.70;;;20.90;46.20;;;;;;5051755;28;20128;-78
2022/05/29 07:54:00;;;;;;;3.40;1.60;;;21.10;47.00;;;;;;5051786;28;20093;-80
2022/05/29 07:56:27;;;;;;;4.43;1.42;;;21.60;46.50;;;;;;5052215;28;20100;-80
2022/05/29 07:58:53;;;;;;;4.80;1.60;;;22.10;43.70;;;;;;5034791;28;20036;-79
2022/05/29 08:01:19;;;;;;;7.35;1.67;;;22.10;45.30;;;;;;5056620;28;20060;-87
2022/05/29 08:03:46;;;;;;;4.28;1.40;;;22.10;45.50;;;;;;5035569;28;20028;-81
2022/05/29 08:06:12;;;;;;;7.20;1.63;;;22.40;44.90;;;;;;5034955;28;20025;-80
2022/05/29 08:08:39;;;;;;;4.55;1.88;;;22.40;45.00;;;;;;5052473;28;20025;-81
2022/05/29 08:11:05;;;;;;;3.53;1.50;;;22.10;43.50;;;;;;5044105;28;20409;-87
2022/05/29 08:13:31;;;;;;;3.45;1.60;;;21.50;44.40;;;;;;5048189;28;20029;-82
2022/05/29 08:15:57;;;;;;;4.93;1.40;;;21.00;44.90;;;;;;5035913;28;20021;-85
2022/05/29 08:18:23;;;;;;;4.00;1.30;;;21.10;44.20;;;;;;5063856;28;20043;-84
2022/05/29 08:20:52;;;;;;;4.28;1.50;;;21.20;44.50;;;;;;5055184;28;20117;-86
2022/05/29 08:23:18;;;;;;;3.10;1.40;;;21.40;46.70;;;;;;5054818;28;20025;-81
2022/05/29 08:31:13;;;;;;;4.63;1.20;;;21.70;44.10;;;;;;5053046;28;20037;-78
2022/05/29 08:33:40;;;;;;;5.22;1.83;;;21.60;43.70;;;;;;5033904;28;20119;-86
2022/05/29 08:36:15;;;;;;;2.85;1.30;;;21.70;43.90;;;;;;5034812;28;20029;-78
2022/05/29 08:38:44;;;;;;;5.93;1.70;;;21.90;44.10;;;;;;5070464;28;20391;-80
2022/05/29 08:41:14;;;;;;;5.93;1.40;;;22.30;44.30;;;;;;5053525;28;20033;-78
2022/05/29 08:43:43;;;;;;;6.85;1.60;;;22.50;44.20;;;;;;5053257;28;20035;-79
2022/05/29 08:46:18;;;;;;;4.55;1.60;;;22.80;42.10;;;;;;5054438;28;20029;-79
2022/05/29 08:48:45;;;;;;;4.35;1.30;;;22.90;42.70;;;;;;5053196;28;20032;-84
2022/05/29 08:51:45;;;;;;;10.98;1.45;;;22.80;42.20;;;;;;5065728;28;20426;-80
2022/05/29 08:54:42;;;;;;;5.00;1.30;;;23.20;42.90;;;;;;5034289;28;20021;-92
2022/05/29 08:57:46;;;;;;;3.83;1.20;;;23.20;42.60;;;;;;5034275;28;20035;-78
2022/05/29 09:00:42;;;;;;;7.88;1.52;;;22.50;42.00;;;;;;5051803;28;20047;-83
2022/05/29 09:03:26;;;;;;;3.80;1.30;;;22.20;42.90;;;;;;4971045;28;20502;-83
2022/05/29 09:06:07;;;;;;;3.25;1.33;;;22.50;42.90;;;;;;4954632;28;20026;-84
2022/05/29 09:08:48;;;;;;;3.17;1.50;;;22.10;42.70;;;;;;4954448;28;20023;-81
2022/05/29 09:11:29;;;;;;;4.03;1.50;;;21.80;43.00;;;;;;4971035;28;20038;-81
2022/05/29 09:14:03;;;;;;;3.92;1.30;;;22.00;43.20;;;;;;4954157;28;20082;-85
2022/05/29 09:16:36;;;;;;;5.47;1.50;;;22.00;43.40;;;;;;4951289;29;20035;-83
2022/05/29 09:19:08;;;;;;;6.88;1.50;;;21.90;42.70;;;;;;4951562;28;20207;-84
2022/05/29 09:21:52;;;;;;;3.67;1.40;;;21.80;43.50;;;;;;4951659;29;20584;-85
2022/05/29 09:24:57;;;;;;;2.88;1.40;;;22.10;43.20;;;;;;4951877;28;20141;-80
2022/05/29 09:27:23;;;;;;;2.40;1.20;;;22.30;42.30;;;;;;4950945;28;20051;-85
2022/05/29 09:29:53;;;;;;;3.63;1.40;;;22.20;44.10;;;;;;4951750;28;20039;-80
2022/05/29 09:32:25;;;;;;;5.90;1.40;;;22.40;44.10;;;;;;4951450;28;20064;-80
2022/05/29 09:35:14;;;;;;;3.40;1.42;;;22.80;43.70;;;;;;4950216;29;20046;-79
2022/05/29 09:37:50;;;;;;;4.63;1.55;;;23.80;43.20;;;;;;4951831;29;20486;-88
2022/05/29 09:40:29;;;;;;;3.17;1.30;;;24.00;40.50;;;;;;5014222;28;20059;-80
2022/05/29 09:42:55;;;;;;;4.15;1.60;;;23.30;41.10;;;;;;5051569;28;20025;-84
2022/05/29 09:45:22;;;;;;;4.25;1.48;;;23.00;42.10;;;;;;5033221;28;20094;-78
2022/05/29 09:50:54;;;;;;;6.22;1.70;;;24.10;41.80;;;;;;5051271;28;20320;-81
2022/05/29 09:53:34;;;;;;;5.45;2.03;;;23.30;42.40;;;;;;5051569;28;20679;-88
2022/05/29 09:56:04;;;;;;;4.63;1.45;;;23.60;42.00;;;;;;5033437;28;20183;-85
2022/05/29 09:58:50;;;;;;;5.18;1.50;;;23.00;41.40;;;;;;5033824;28;20032;-80
2022/05/29 10:01:32;;;;;;;3.40;1.30;;;22.40;42.10;;;;;;5033065;28;20093;-84
2022/05/29 10:04:04;;;;;;;4.15;1.45;;;22.10;41.40;;;;;;5050848;28;20070;-87
2022/05/29 10:06:42;;;;;;;3.05;1.33;;;22.80;42.30;;;;;;5035256;28;20035;-84
2022/05/29 10:09:23;;;;;;;3.08;1.27;;;23.60;40.90;;;;;;5036962;28;20479;-79
2022/05/29 10:11:51;;;;;;;3.67;1.50;;;24.30;42.00;;;;;;5036925;28;20033;-86
2022/05/29 10:14:33;;;;;;;5.55;1.60;;;24.90;40.70;;;;;;5045904;28;20017;-81
2022/05/29 10:16:59;;;;;;;5.40;1.60;;;24.80;39.30;;;;;;5036900;28;20368;-80
2022/05/29 10:19:35;;;;;;;7.50;1.65;;;23.40;41.20;;;;;;5055320;28;20043;-78
2022/05/29 10:22:02;;;;;;;2.95;1.40;;;22.70;41.50;;;;;;5035924;28;20044;-81
2022/05/29 10:24:37;;;;;;;3.88;1.58;;;22.50;41.00;;;;;;5037804;28;20070;-87
2022/05/29 10:27:28;;;;;;;6.03;1.60;;;22.50;41.20;;;;;;5037232;28;20029;-86
2022/05/29 10:30:14;;;;;;;;;;;23.40;42.00;;;;;;5037981;28;20040;-85
2022/05/29 10:32:42;;;;;;;3.90;1.50;;;24.30;40.70;;;;;;5035308;28;20334;-77
2022/05/29 10:35:27;;;;;;;4.18;1.50;;;24.40;41.40;;;;;;5054753;28;20055;-79
2022/05/29 10:37:54;;;;;;;2.60;1.30;;;23.80;41.80;;;;;;5036237;28;20028;-77
2022/05/29 10:40:28;;;;;;;4.68;1.50;;;24.10;42.40;;;;;;5036129;28;20067;-81
2022/05/29 10:43:00;;;;;;;4.85;1.70;;;24.20;39.70;;;;;;5036481;28;20040;-81
2022/05/29 10:45:44;;;;;;;9.55;1.40;;;23.60;40.70;;;;;;5036889;28;20029;-82
2022/05/29 10:48:25;;;;;;;4.40;1.40;;;23.20;42.30;;;;;;5036944;28;20029;-86
2022/05/29 10:51:09;;;;;;;;;;;22.50;42.20;;;;;;5052967;28;20079;-78
2022/05/29 10:54:12;;;;;;;4.45;1.30;;;22.80;40.90;;;;;;5035778;28;20390;-76
2022/05/29 10:57:15;;;;;;;3.67;1.50;;;23.50;40.60;;;;;;5053793;28;20475;-77
2022/05/29 10:59:40;;;;;;;4.10;1.30;;;23.70;40.90;;;;;;5053567;28;20075;-82
2022/05/29 11:05:27;;;;;;;8.10;2.10;;;23.00;42.30;;;;;;5054907;28;20121;-89
2022/05/29 11:08:11;;;;;;;3.20;1.60;;;22.60;41.20;;;;;;5052251;28;20024;-82
2022/05/29 11:10:48;;;;;;;5.63;1.40;;;22.80;42.10;;;;;;5055387;28;20028;-81
2022/05/29 11:13:39;;;;;;;2.90;1.30;;;23.20;41.30;;;;;;5035816;28;20040;-79
2022/05/29 11:16:20;;;;;;;4.93;1.60;;;23.20;41.00;;;;;;5036231;28;20032;-86
2022/05/29 11:19:26;;;;;;;4.57;1.50;;;23.50;40.70;;;;;;4703637;28;10000032;-77
2022/05/29 11:21:58;;;;;;;4.25;1.40;;;23.80;41.30;;;;;;5015560;28;20619;-81
2022/05/29 11:24:36;;;;;;;6.70;1.40;;;24.10;38.40;;;;;;5013932;28;20022;-76
2022/05/29 11:27:19;;;;;;;3.03;1.30;;;24.00;39.20;;;;;;5014426;28;20118;-78
2022/05/29 11:30:08;;;;;;;2.80;1.30;;;24.00;38.20;;;;;;5014947;28;20096;-78
2022/05/29 11:33:09;;;;;;;2.13;1.10;;;23.80;39.10;;;;;;5014147;28;20480;-81
2022/05/29 11:35:46;;;;;;;3.53;1.40;;;23.70;39.10;;;;;;4935806;29;20167;-78
2022/05/29 11:38:30;;;;;;;5.13;1.30;;;24.10;40.10;;;;;;4935643;29;20055;-84
2022/05/29 11:41:07;;;;;;;3.65;1.20;;;23.70;38.70;;;;;;4935800;29;20063;-76
2022/05/29 11:43:38;;;;;;;3.10;1.30;;;24.00;39.10;;;;;;4935274;29;20040;-78
2022/05/29 11:52:13;;;;;;;4.80;1.30;;;24.80;39.80;;;;;;4935867;29;20047;-78
2022/05/29 11:55:00;;;;;;;3.30;1.45;;;25.10;39.70;;;;;;4937146;29;20027;-87
2022/05/29 11:57:35;;;;;;;3.58;1.40;;;25.50;39.90;;;;;;4954412;29;20549;-80
2022/05/29 12:00:08;;;;;;;4.93;1.60;;;26.00;37.20;;;;;;4954799;29;20134;-81
2022/05/29 12:02:54;;;;;;;5.05;2.08;;;25.30;39.20;;;;;;4954468;29;20490;-78
2022/05/29 12:05:33;;;;;;;5.60;1.50;;;24.60;39.40;;;;;;4954447;29;20043;-84
2022/05/29 12:08:13;;;;;;;5.63;1.55;;;24.00;39.20;;;;;;4954067;29;20079;-82
2022/05/29 12:11:04;;;;;;;3.58;1.40;;;23.20;39.60;;;;;;4954084;29;20119;-80
2022/05/29 12:13:46;;;;;;;4.60;1.58;;;23.40;40.00;;;;;;5033797;28;20040;-81
2022/05/29 12:16:12;;;;;;;3.42;1.30;;;23.80;40.80;;;;;;5033611;28;20037;-82
2022/05/29 12:18:48;;;;;;;2.60;1.20;;;23.60;40.10;;;;;;5033196;28;20021;-80
2022/05/29 12:21:18;;;;;;;4.82;1.20;;;23.70;39.70;;;;;;5064708;28;20517;-80
2022/05/29 12:23:48;;;;;;;3.78;1.30;;;24.00;38.90;;;;;;5055835;28;20391;-80
2022/05/29 12:26:36;;;;;;;6.43;1.48;;;23.50;39.10;;;;;;5056208;28;20098;-82
2022/05/29 12:29:12;;;;;;;3.85;1.48;;;23.20;39.40;;;;;;5055514;28;20530;-90
2022/05/29 12:31:44;;;;;;;3.22;1.23;;;23.80;38.90;;;;;;5052366;28;20104;-77
2022/05/29 12:34:44;;;;;;;3.83;1.38;;;24.30;39.30;;;;;;5055792;28;20483;-76
2022/05/29 12:37:47;;;;;;;11.20;1.90;;;24.20;38.00;;;;;;5039717;28;20056;-76
2022/05/29 12:40:58;;;;;;;6.13;1.70;;;23.40;41.10;;;;;;5053531;28;20498;-76
2022/05/29 12:43:41;;;;;;;2.50;1.20;;;23.50;39.80;;;;;;4953249;29;20050;-75
2022/05/29 12:46:39;;;;;;;3.28;1.40;;;23.90;39.90;;;;;;4952965;29;20031;-79
2022/05/29 12:49:17;;;;;;;5.53;1.50;;;25.10;39.70;;;;;;4936909;29;20557;-80
2022/05/29 12:52:08;;;;;;;5.82;1.48;;;26.10;38.60;;;;;;4953886;29;20158;-75
2022/05/29 12:54:40;;;;;;;5.38;1.27;;;25.40;38.90;;;;;;4953655;29;20498;-80
2022/05/29 12:57:21;;;;;;;4.07;1.50;;;23.80;39.00;;;;;;4937345;29;20502;-77
2022/05/29 12:59:49;;;;;;;;;;;24.20;40.90;;;;;;4937874;29;20541;-83
2022/05/29 13:03:03;;;;;;;3.45;1.63;;;25.00;39.80;;;;;;4953843;28;19906;-82
2022/05/29 13:05:53;;;;;;;5.18;1.55;;;24.50;39.70;;;;;;4897403;29;20084;-86
2022/05/29 13:08:38;;;;;;;7.15;1.40;;;23.50;40.30;;;;;;4904054;29;20100;-74
2022/05/29 13:11:05;;;;;;;6.43;1.40;;;23.40;41.10;;;;;;4569327;29;10000508;-76
2022/05/29 13:13:39;;;;;;;11.95;1.85;;;23.70;41.50;;;;;;4907564;29;20067;-74
2022/05/29 13:16:36;;;;;;;4.72;1.60;;;24.40;41.30;;;;;;4898854;29;20066;-75
2022/05/29 13:19:17;;;;;;;4.88;1.50;;;25.00;40.10;;;;;;4902454;28;20048;-77
2022/05/29 13:21:57;;;;;;;4.55;1.63;;;24.70;40.70;;;;;;4973567;28;20054;-75
2022/05/29 13:24:25;;;;;;;3.35;1.35;;;24.70;40.90;;;;;;4985233;28;20091;-75
2022/05/29 13:27:09;;;;;;;5.75;1.60;;;24.90;39.60;;;;;;4971575;28;20504;-80
2022/05/29 13:29:51;;;;;;;2.88;1.52;;;24.90;40.50;;;;;;4961683;28;20034;-75
2022/05/29 13:32:24;;;;;;;7.13;1.55;;;24.30;40.50;;;;;;4965439;28;20489;-76
2022/05/29 13:35:02;;;;;;;5.03;1.60;;;24.20;41.10;;;;;;4984404;28;20092;-78
2022/05/29 13:37:46;;;;;;;3.00;1.50;;;24.80;41.60;;;;;;4991044;28;20034;-79
2022/05/29 13:40:21;;;;;;;2.80;1.42;;;25.00;39.70;;;;;;5011464;28;20161;-79
2022/05/29 13:42:50;;;;;;;4.95;1.42;;;25.10;39.00;;;;;;5060478;28;20123;-74
2022/05/29 13:45:24;;;;;;;6.18;1.70;;;25.30;39.70;;;;;;5068933;28;20127;-83
2022/05/29 13:48:10;;;;;;;6.38;1.60;;;24.90;40.00;;;;;;5092483;28;20036;-83
2022/05/29 13:51:08;;;;;;;3.53;1.50;;;23.90;40.80;;;;;;5036785;28;20115;-78
2022/05/29 13:53:42;;;;;;;3.67;1.58;;;23.70;41.80;;;;;;5033367;28;20040;-76
2022/05/29 13:56:18;;;;;;;4.03;1.65;;;24.10;41.00;;;;;;5036763;28;20021;-84
2022/05/29 14:04:37;;;;;;;5.88;1.90;;;24.20;42.10;;;;;;5060730;28;20414;-79